Time;durP1;ratioP1;P1;durP2;ratioP2;P2;SDS_P1;SDS_P2;PMS_P1;PMS_P2;Temp;Humidity;BMP_temperature;BMP_pressure;BME280_temperature;BME280_humidity;BME280_pressure;Samples;Min_cycle;Max_cycle;Signal;HPM_P1;HPM_P2
2022/10/08 00:01:02;;;;;;;10.77;6.47;;;13.30;96.30;;;;;;4991427;28;20061;-69
2022/10/08 00:03:32;;;;;;;10.70;6.18;;;13.20;96.30;;;;;;4992640;28;20105;-68
2022/10/08 00:06:19;;;;;;;10.55;6.88;;;13.30;96.40;;;;;;4993246;28;20033;-69
2022/10/08 00:09:02;;;;;;;13.48;6.32;;;13.20;96.40;;;;;;4994058;28;20397;-68
2022/10/08 00:11:32;;;;;;;11.05;6.97;;;13.20;96.40;;;;;;4988920;28;20512;-69
2022/10/08 00:14:00;;;;;;;14.32;6.57;;;13.20;96.50;;;;;;4990811;28;20649;-69
2022/10/08 00:16:32;;;;;;;7.82;5.68;;;13.10;96.40;;;;;;4988487;28;20051;-69
2022/10/08 00:19:00;;;;;;;10.02;6.35;;;13.10;96.50;;;;;;4989330;28;20565;-69
2022/10/08 00:21:35;;;;;;;12.90;6.30;;;13.10;96.60;;;;;;4984762;28;20068;-69
2022/10/08 00:24:03;;;;;;;;;;;13.10;96.60;;;;;;4992907;28;20530;-69
2022/10/08 00:26:32;;;;;;;11.23;5.90;;;13.00;96.40;;;;;;4985382;28;19937;-68
2022/10/08 00:29:00;;;;;;;12.63;6.15;;;13.00;96.60;;;;;;4985152;28;20028;-68
2022/10/08 00:31:31;;;;;;;10.25;5.95;;;13.00;96.70;;;;;;4975431;28;20038;-69
2022/10/08 00:33:58;;;;;;;13.63;6.32;;;13.00;96.80;;;;;;4986772;28;20038;-69
2022/10/08 00:36:26;;;;;;;10.35;6.07;;;13.00;96.80;;;;;;4983669;28;20546;-69
2022/10/08 00:39:06;;;;;;;8.85;6.53;;;12.90;96.90;;;;;;4989486;28;20049;-69
2022/10/08 00:41:36;;;;;;;8.45;5.50;;;13.00;97.00;;;;;;4984044;28;20393;-69
2022/10/08 00:44:02;;;;;;;10.02;6.18;;;12.90;96.90;;;;;;4980059;28;20564;-68
2022/10/08 00:46:38;;;;;;;10.77;6.05;;;12.90;97.00;;;;;;4984614;28;20062;-69
2022/10/08 00:49:10;;;;;;;12.13;5.80;;;12.90;97.10;;;;;;4982569;28;20042;-68
2022/10/08 00:51:40;;;;;;;9.13;5.28;;;12.90;97.10;;;;;;4978456;28;20026;-69
2022/10/08 00:54:06;;;;;;;11.57;6.18;;;12.90;97.20;;;;;;4978715;28;20039;-68
2022/10/08 00:56:35;;;;;;;8.98;5.15;;;12.90;97.40;;;;;;4991699;28;20512;-70
2022/10/08 00:59:03;;;;;;;8.70;5.25;;;12.90;97.30;;;;;;5000356;28;20084;-70
2022/10/08 01:01:30;;;;;;;8.82;5.53;;;12.90;97.30;;;;;;4990217;28;20053;-71
2022/10/08 01:03:58;;;;;;;9.93;5.72;;;12.80;97.30;;;;;;4992936;28;20015;-70
2022/10/08 01:06:31;;;;;;;11.23;5.90;;;12.90;97.40;;;;;;5002042;28;20050;-72
2022/10/08 01:09:20;;;;;;;8.02;4.82;;;12.80;97.50;;;;;;5012618;28;20040;-72
2022/10/08 01:11:49;;;;;;;9.10;5.65;;;12.90;97.50;;;;;;4996610;28;20397;-71
2022/10/08 01:14:27;;;;;;;10.07;5.57;;;12.90;97.50;;;;;;4998543;28;20038;-71
2022/10/08 01:17:10;;;;;;;8.02;5.55;;;12.90;97.60;;;;;;5004943;28;20037;-72
2022/10/08 01:19:53;;;;;;;9.30;5.22;;;12.80;97.60;;;;;;5012646;28;20041;-72
2022/10/08 01:22:44;;;;;;;10.80;5.85;;;12.90;97.70;;;;;;5002514;28;20038;-72
2022/10/08 01:25:32;;;;;;;6.50;4.93;;;12.90;97.60;;;;;;4998373;28;20034;-72
2022/10/08 01:28:01;;;;;;;7.13;4.78;;;12.90;97.60;;;;;;5006381;28;20029;-72
2022/10/08 01:30:31;;;;;;;14.55;6.40;;;12.90;97.60;;;;;;5008766;28;20038;-72
2022/10/08 01:33:03;;;;;;;9.05;5.78;;;13.00;97.70;;;;;;4996233;28;20054;-72
2022/10/08 01:35:33;;;;;;;9.82;5.75;;;13.00;97.70;;;;;;4992756;28;20046;-72
2022/10/08 01:38:03;;;;;;;7.85;5.30;;;13.00;97.70;;;;;;5007387;28;20072;-72
2022/10/08 01:40:34;;;;;;;8.50;4.97;;;13.00;97.80;;;;;;4993519;28;20030;-72
2022/10/08 01:43:05;;;;;;;8.85;5.70;;;13.00;97.80;;;;;;5000930;28;20354;-72
2022/10/08 01:45:36;;;;;;;6.82;4.85;;;13.10;97.90;;;;;;5001343;28;20030;-72
2022/10/08 01:48:08;;;;;;;9.55;5.18;;;13.00;97.90;;;;;;4999771;28;20029;-72
2022/10/08 01:50:39;;;;;;;7.88;5.00;;;13.00;98.00;;;;;;5008804;28;20074;-71
2022/10/08 01:53:10;;;;;;;7.43;5.70;;;13.00;98.00;;;;;;4997705;28;20037;-71
2022/10/08 01:55:42;;;;;;;9.75;5.20;;;13.00;98.00;;;;;;4995861;28;20054;-72
2022/10/08 01:58:13;;;;;;;8.23;5.30;;;13.00;98.10;;;;;;5003715;28;20515;-72
2022/10/08 02:00:40;;;;;;;8.38;5.18;;;13.10;98.10;;;;;;5008611;28;20125;-72
2022/10/08 02:03:10;;;;;;;7.53;4.80;;;13.10;98.10;;;;;;4997760;28;20108;-71
2022/10/08 02:05:42;;;;;;;11.35;6.50;;;13.10;98.10;;;;;;5003263;28;20108;-71
2022/10/08 02:08:09;;;;;;;8.85;5.10;;;13.10;98.10;;;;;;5000919;28;20038;-72
2022/10/08 02:10:35;;;;;;;6.38;5.28;;;13.10;98.10;;;;;;5006310;28;20041;-71
2022/10/08 02:13:02;;;;;;;7.45;5.05;;;13.20;98.20;;;;;;5002316;28;20022;-72
2022/10/08 02:15:59;;;;;;;7.72;5.53;;;13.10;98.20;;;;;;4997852;28;20441;-72
2022/10/08 02:18:40;;;;;;;8.23;5.80;;;13.10;98.30;;;;;;5004775;28;20065;-72
2022/10/08 02:21:18;;;;;;;8.82;5.30;;;13.10;98.30;;;;;;5009850;28;20041;-72
2022/10/08 02:24:14;;;;;;;8.05;5.07;;;13.20;98.40;;;;;;4992618;28;20109;-72
2022/10/08 02:26:46;;;;;;;11.15;5.90;;;13.20;98.40;;;;;;5001245;28;20103;-71
2022/10/08 02:29:23;;;;;;;7.65;5.50;;;13.10;98.40;;;;;;4992167;28;20105;-72
2022/10/08 02:31:55;;;;;;;9.07;5.47;;;13.20;98.50;;;;;;5000411;28;20065;-71
2022/10/08 02:35:08;;;;;;;11.27;5.65;;;13.20;98.50;;;;;;4998404;28;20142;-71
2022/10/08 02:37:43;;;;;;;8.13;5.50;;;13.20;98.50;;;;;;4968204;28;20053;-70
2022/10/08 02:40:13;;;;;;;8.85;5.25;;;13.20;98.50;;;;;;5003654;28;20397;-71
2022/10/08 02:42:53;;;;;;;10.68;5.88;;;13.20;98.50;;;;;;4999051;28;20116;-72
2022/10/08 02:45:28;;;;;;;8.23;5.47;;;13.20;98.60;;;;;;4994605;28;20030;-71
2022/10/08 02:48:02;;;;;;;10.20;6.15;;;13.20;98.60;;;;;;5003002;28;20163;-71
2022/10/08 02:50:31;;;;;;;10.30;6.00;;;13.30;98.60;;;;;;5001721;28;20038;-71
2022/10/08 02:52:58;;;;;;;6.95;5.30;;;13.20;98.60;;;;;;5004547;28;20116;-71
2022/10/08 02:55:34;;;;;;;9.15;5.43;;;13.20;98.60;;;;;;5011110;28;20038;-71
2022/10/08 02:58:04;;;;;;;8.07;5.55;;;13.20;98.60;;;;;;5006245;28;20137;-71
2022/10/08 03:00:47;;;;;;;10.73;5.85;;;13.30;98.70;;;;;;5010064;28;20109;-72
2022/10/08 03:03:18;;;;;;;7.32;5.10;;;13.30;98.70;;;;;;5006158;28;20022;-72
2022/10/08 03:05:44;;;;;;;11.38;6.05;;;13.30;98.70;;;;;;4991660;28;20063;-72
2022/10/08 03:08:13;;;;;;;9.60;6.10;;;13.30;98.70;;;;;;4996958;28;20058;-73
2022/10/08 03:10:40;;;;;;;8.43;5.72;;;13.30;98.70;;;;;;4998947;28;20746;-73
2022/10/08 03:13:07;;;;;;;8.88;5.50;;;13.30;98.80;;;;;;5007154;28;20042;-73
2022/10/08 03:15:35;;;;;;;9.52;5.35;;;13.30;99.00;;;;;;4996660;28;20081;-72
2022/10/08 03:18:05;;;;;;;8.23;5.65;;;13.30;98.80;;;;;;4996569;28;20423;-72
2022/10/08 03:20:31;;;;;;;7.68;5.45;;;13.30;98.90;;;;;;4999780;28;20030;-72
2022/10/08 03:23:00;;;;;;;9.52;5.90;;;13.20;98.90;;;;;;5008841;28;20032;-73
2022/10/08 03:25:26;;;;;;;9.65;5.80;;;13.20;98.90;;;;;;5012799;28;20108;-73
2022/10/08 03:27:52;;;;;;;8.85;5.47;;;13.20;98.90;;;;;;5001310;28;20197;-73
2022/10/08 03:30:18;;;;;;;10.75;5.45;;;13.20;99.00;;;;;;5006810;28;20026;-73
2022/10/08 03:32:44;;;;;;;7.30;5.22;;;13.20;99.00;;;;;;5006464;28;20018;-72
2022/10/08 03:35:10;;;;;;;5.93;4.70;;;13.20;99.10;;;;;;5013862;28;20034;-73
2022/10/08 03:37:35;;;;;;;8.18;5.50;;;13.20;99.10;;;;;;5010164;28;20022;-72
2022/10/08 03:40:01;;;;;;;8.63;5.90;;;13.30;99.10;;;;;;4995196;28;20022;-73
2022/10/08 03:42:26;;;;;;;7.50;5.07;;;13.30;99.10;;;;;;4993582;28;20032;-72
2022/10/08 03:44:53;;;;;;;8.35;5.55;;;13.30;99.10;;;;;;5009637;28;20022;-72
2022/10/08 03:47:19;;;;;;;8.73;5.80;;;13.30;99.10;;;;;;5006581;28;20046;-73
2022/10/08 03:49:44;;;;;;;9.13;5.57;;;13.30;99.10;;;;;;4993776;28;20026;-72
2022/10/08 03:52:10;;;;;;;7.95;5.85;;;13.30;99.10;;;;;;5010338;28;20117;-72
2022/10/08 03:54:36;;;;;;;8.50;5.38;;;13.30;99.10;;;;;;4998692;28;20378;-72
2022/10/08 03:57:02;;;;;;;9.32;6.03;;;13.30;99.20;;;;;;5005622;28;20043;-72
2022/10/08 03:59:28;;;;;;;8.55;5.28;;;13.30;99.30;;;;;;5013255;28;20432;-72
2022/10/08 04:01:53;;;;;;;11.75;6.10;;;13.30;99.30;;;;;;5006908;28;20042;-72
2022/10/08 04:04:19;;;;;;;8.57;5.70;;;13.30;99.30;;;;;;5004318;28;20022;-72
2022/10/08 04:06:44;;;;;;;7.55;5.30;;;13.30;99.30;;;;;;5000831;28;20026;-72
2022/10/08 04:09:10;;;;;;;7.85;5.60;;;13.30;99.30;;;;;;4996900;28;20112;-72
2022/10/08 04:11:36;;;;;;;9.68;5.68;;;13.40;99.30;;;;;;4998004;28;20081;-72
2022/10/08 04:14:02;;;;;;;9.20;5.93;;;13.40;99.40;;;;;;4999026;28;20553;-72
2022/10/08 04:16:28;;;;;;;8.30;5.80;;;13.40;99.40;;;;;;5012580;28;20120;-72
2022/10/08 04:18:54;;;;;;;9.55;5.60;;;13.30;99.40;;;;;;5010748;28;20026;-72
2022/10/08 04:21:20;;;;;;;8.63;6.00;;;13.30;99.40;;;;;;5012584;28;20030;-72
2022/10/08 04:23:48;;;;;;;8.85;6.07;;;13.30;99.40;;;;;;5010471;28;20544;-72
2022/10/08 04:26:14;;;;;;;8.38;6.05;;;13.40;99.40;;;;;;5015619;28;20030;-72
2022/10/08 04:28:41;;;;;;;9.43;6.30;;;13.30;99.40;;;;;;4996671;28;20532;-72
2022/10/08 04:31:11;;;;;;;9.52;6.20;;;13.30;99.50;;;;;;5007130;28;20045;-72
2022/10/08 04:33:36;;;;;;;7.35;5.60;;;13.30;99.50;;;;;;4997567;28;20069;-72
2022/10/08 04:36:15;;;;;;;8.82;5.97;;;13.30;99.50;;;;;;5004983;28;20038;-72
2022/10/08 04:38:42;;;;;;;9.40;5.78;;;13.30;99.60;;;;;;4998854;28;20026;-71
2022/10/08 04:41:20;;;;;;;7.60;5.05;;;13.30;99.50;;;;;;5000235;28;20096;-71
2022/10/08 04:43:46;;;;;;;9.77;6.00;;;13.30;99.50;;;;;;4997243;28;20641;-72
2022/10/08 04:46:15;;;;;;;8.52;5.40;;;13.30;99.50;;;;;;5012447;28;20033;-71
2022/10/08 04:48:45;;;;;;;9.50;6.30;;;13.30;99.60;;;;;;4997936;28;20517;-71
2022/10/08 04:51:11;;;;;;;9.32;5.75;;;13.30;99.60;;;;;;4995758;28;20073;-72
2022/10/08 04:53:37;;;;;;;10.90;5.72;;;13.20;99.60;;;;;;4989748;28;20062;-72
2022/10/08 04:56:11;;;;;;;7.47;5.75;;;13.20;99.60;;;;;;5009169;28;20134;-71
2022/10/08 04:58:37;;;;;;;8.40;5.22;;;13.10;99.70;;;;;;5000442;28;20433;-71
2022/10/08 05:01:05;;;;;;;10.32;6.13;;;13.10;99.60;;;;;;5008617;28;20096;-72
2022/10/08 05:03:34;;;;;;;9.63;5.90;;;13.10;99.70;;;;;;5005359;28;20022;-72
2022/10/08 05:06:00;;;;;;;8.02;6.07;;;13.10;99.70;;;;;;4993932;28;20037;-72
2022/10/08 05:08:27;;;;;;;7.97;6.28;;;13.00;99.70;;;;;;4997514;28;20046;-72
2022/10/08 05:10:54;;;;;;;8.88;6.20;;;13.00;99.70;;;;;;4977042;28;20488;-72
2022/10/08 05:13:20;;;;;;;8.45;6.20;;;13.00;99.70;;;;;;4997562;28;20026;-72
2022/10/08 05:15:47;;;;;;;7.40;5.65;;;12.90;99.70;;;;;;5002516;28;20379;-72
2022/10/08 05:18:13;;;;;;;9.85;6.30;;;12.90;99.80;;;;;;4995351;28;20022;-71
2022/10/08 05:20:39;;;;;;;7.75;5.35;;;12.90;99.80;;;;;;5003003;28;20124;-73
2022/10/08 05:23:05;;;;;;;6.50;5.20;;;12.90;99.80;;;;;;4991251;28;20109;-73
2022/10/08 05:25:32;;;;;;;9.52;6.20;;;12.90;99.80;;;;;;4993999;28;20057;-72
2022/10/08 05:27:57;;;;;;;9.52;6.20;;;12.90;99.80;;;;;;5002132;28;20030;-71
2022/10/08 05:30:23;;;;;;;11.02;5.63;;;12.90;99.90;;;;;;4988354;28;20030;-71
2022/10/08 05:32:48;;;;;;;10.27;6.72;;;12.80;99.90;;;;;;5008904;28;20393;-71
2022/10/08 05:35:14;;;;;;;13.30;6.97;;;12.90;99.90;;;;;;4993431;28;20042;-72
2022/10/08 05:37:40;;;;;;;9.13;5.53;;;12.80;99.90;;;;;;4995822;28;20049;-71
2022/10/08 05:40:06;;;;;;;10.07;6.03;;;12.80;99.90;;;;;;4996918;28;20029;-71
2022/10/08 05:42:31;;;;;;;8.45;5.47;;;12.80;99.90;;;;;;5004643;28;20034;-71
2022/10/08 05:44:57;;;;;;;8.48;6.32;;;12.80;99.90;;;;;;4998818;28;20041;-71
2022/10/08 05:47:22;;;;;;;9.82;6.18;;;12.80;99.90;;;;;;5000078;28;20022;-70
2022/10/08 05:49:48;;;;;;;8.07;5.78;;;12.80;99.90;;;;;;4997585;28;20058;-71
2022/10/08 05:52:13;;;;;;;10.18;5.95;;;12.90;99.90;;;;;;5000050;28;20038;-70
2022/10/08 05:54:39;;;;;;;10.43;6.10;;;12.90;99.90;;;;;;5010234;28;20030;-70
2022/10/08 05:57:04;;;;;;;7.35;5.32;;;12.90;99.90;;;;;;5008166;28;20057;-71
2022/10/08 05:59:30;;;;;;;11.73;5.90;;;12.80;99.90;;;;;;5009206;28;20021;-70
2022/10/08 06:01:58;;;;;;;7.00;5.57;;;12.90;99.90;;;;;;5011427;28;20045;-69
2022/10/08 06:04:23;;;;;;;8.32;6.47;;;12.90;99.90;;;;;;5001100;28;20026;-70
2022/10/08 06:06:49;;;;;;;9.38;5.95;;;12.90;99.90;;;;;;4996906;28;20020;-69
2022/10/08 06:09:18;;;;;;;8.80;6.05;;;12.90;99.90;;;;;;4997990;28;20038;-69
2022/10/08 06:11:44;;;;;;;12.88;6.05;;;12.90;99.90;;;;;;5011492;28;20432;-70
2022/10/08 06:14:11;;;;;;;7.45;6.13;;;12.90;99.90;;;;;;5000142;28;20034;-70
2022/10/08 06:16:37;;;;;;;9.10;6.28;;;12.90;99.90;;;;;;5004683;28;20030;-70
2022/10/08 06:19:04;;;;;;;10.15;6.53;;;12.90;99.90;;;;;;5010304;28;20033;-71
2022/10/08 06:21:30;;;;;;;9.63;6.25;;;12.90;99.90;;;;;;5005296;28;20092;-70
2022/10/08 06:23:57;;;;;;;10.40;5.93;;;12.90;99.90;;;;;;5003658;28;20027;-71
2022/10/08 06:26:25;;;;;;;8.60;5.38;;;12.90;99.90;;;;;;4998889;28;20053;-70
2022/10/08 06:28:51;;;;;;;12.75;6.22;;;12.90;99.90;;;;;;5001568;28;20420;-71
2022/10/08 06:31:17;;;;;;;9.95;6.60;;;12.90;99.90;;;;;;4996307;28;20030;-70
2022/10/08 06:33:44;;;;;;;10.27;5.90;;;12.90;99.90;;;;;;5002262;28;20140;-70
2022/10/08 06:36:12;;;;;;;11.05;6.30;;;12.90;99.90;;;;;;5011568;28;20026;-70
2022/10/08 06:38:38;;;;;;;9.10;6.63;;;12.90;99.90;;;;;;4999535;28;20026;-70
2022/10/08 06:41:04;;;;;;;12.93;6.18;;;13.00;99.90;;;;;;4994181;28;20022;-69
2022/10/08 06:43:29;;;;;;;9.18;6.18;;;13.00;99.90;;;;;;5000341;28;20022;-70
2022/10/08 06:45:58;;;;;;;8.90;6.40;;;13.00;99.90;;;;;;4995893;28;20034;-70
2022/10/08 06:48:26;;;;;;;7.22;5.82;;;13.00;99.90;;;;;;5008474;28;20172;-70
2022/10/08 06:51:00;;;;;;;10.30;6.18;;;13.00;99.90;;;;;;5005311;28;20354;-69
2022/10/08 06:53:26;;;;;;;6.95;5.57;;;13.00;99.90;;;;;;5014768;28;20040;-70
2022/10/08 06:55:59;;;;;;;8.75;6.18;;;13.00;99.90;;;;;;5014323;28;20038;-70
2022/10/08 06:58:25;;;;;;;8.38;5.82;;;13.00;99.90;;;;;;5004339;28;20113;-69
2022/10/08 07:01:05;;;;;;;8.70;5.93;;;13.00;99.90;;;;;;5004579;28;20160;-70
2022/10/08 07:03:31;;;;;;;8.77;5.97;;;13.00;99.90;;;;;;5003698;28;20026;-70
2022/10/08 07:06:02;;;;;;;8.68;6.30;;;13.00;99.90;;;;;;5013904;28;20503;-69
2022/10/08 07:08:28;;;;;;;13.52;7.38;;;13.00;99.90;;;;;;5009826;28;20015;-70
2022/10/08 07:10:54;;;;;;;10.18;6.20;;;13.00;99.90;;;;;;5004409;28;20065;-70
2022/10/08 07:13:21;;;;;;;9.02;5.93;;;13.00;99.90;;;;;;5001782;28;20034;-71
2022/10/08 07:15:46;;;;;;;12.75;7.13;;;13.00;99.90;;;;;;5007921;28;20438;-70
2022/10/08 07:18:12;;;;;;;9.57;6.43;;;13.00;99.90;;;;;;5009952;28;20018;-70
2022/10/08 07:20:38;;;;;;;12.05;7.07;;;13.10;99.90;;;;;;4999256;28;20082;-70
2022/10/08 07:23:04;;;;;;;7.38;5.90;;;13.10;99.90;;;;;;4999223;28;20048;-71
2022/10/08 07:25:30;;;;;;;8.07;5.75;;;13.10;99.90;;;;;;5014492;28;20473;-70
2022/10/08 07:27:56;;;;;;;11.70;6.32;;;13.10;99.90;;;;;;5013023;28;20033;-70
2022/10/08 07:30:21;;;;;;;8.15;6.07;;;13.10;99.90;;;;;;5013953;28;20485;-70
2022/10/08 07:32:53;;;;;;;8.70;6.05;;;13.20;99.90;;;;;;4985163;28;20028;-70
2022/10/08 07:35:19;;;;;;;8.88;5.65;;;13.20;99.90;;;;;;5005997;28;20038;-70
2022/10/08 07:37:44;;;;;;;10.18;6.68;;;13.30;99.90;;;;;;5014153;28;20125;-70
2022/10/08 07:40:10;;;;;;;8.77;5.43;;;13.30;99.90;;;;;;4987517;28;20022;-69
2022/10/08 07:42:36;;;;;;;11.25;6.38;;;13.40;99.90;;;;;;5002588;28;20040;-69
2022/10/08 07:45:02;;;;;;;10.02;5.82;;;13.40;99.90;;;;;;5008314;28;20035;-69
2022/10/08 07:47:27;;;;;;;9.30;5.88;;;13.40;99.90;;;;;;4993782;28;20110;-69
2022/10/08 07:49:53;;;;;;;9.07;5.95;;;13.50;99.90;;;;;;5001197;28;20397;-69
2022/10/08 07:52:18;;;;;;;9.57;6.38;;;13.50;99.90;;;;;;5008354;28;20026;-70
2022/10/08 07:54:44;;;;;;;9.25;6.05;;;13.60;99.90;;;;;;4999809;28;20033;-70
2022/10/08 07:57:10;;;;;;;11.07;5.80;;;13.60;99.90;;;;;;4996793;28;20385;-70
2022/10/08 07:59:36;;;;;;;9.15;5.60;;;13.70;99.90;;;;;;5009588;28;20033;-69
2022/10/08 08:02:02;;;;;;;12.95;5.28;;;13.70;99.90;;;;;;5003809;28;20121;-70
2022/10/08 08:04:27;;;;;;;10.10;5.25;;;13.80;99.90;;;;;;5007970;28;20029;-70
2022/10/08 08:06:53;;;;;;;8.25;5.10;;;13.80;99.90;;;;;;5003049;28;20027;-73
2022/10/08 08:09:20;;;;;;;12.32;6.82;;;13.80;99.90;;;;;;5007654;28;20116;-70
2022/10/08 08:11:47;;;;;;;12.35;6.38;;;13.90;99.90;;;;;;4998370;28;20034;-71
2022/10/08 08:14:13;;;;;;;9.60;5.85;;;14.00;99.90;;;;;;5001466;28;20128;-71
2022/10/08 08:16:40;;;;;;;11.32;5.40;;;14.10;99.90;;;;;;5011974;28;20120;-71
2022/10/08 08:19:06;;;;;;;7.68;4.95;;;14.20;99.90;;;;;;5002290;28;20030;-69
2022/10/08 08:21:36;;;;;;;12.88;4.95;;;14.30;99.90;;;;;;5008027;28;20033;-71
2022/10/08 08:24:04;;;;;;;7.20;4.55;;;14.40;99.90;;;;;;5004555;28;20030;-70
2022/10/08 08:26:33;;;;;;;5.78;3.92;;;14.50;99.60;;;;;;5012349;28;20030;-71
2022/10/08 08:29:09;;;;;;;10.00;4.07;;;14.50;99.50;;;;;;5010169;28;20053;-71
2022/10/08 08:31:36;;;;;;;8.48;3.22;;;14.60;99.30;;;;;;4994039;28;20030;-71
2022/10/08 08:34:06;;;;;;;6.60;3.38;;;14.70;99.20;;;;;;4999251;28;20038;-71
2022/10/08 08:36:37;;;;;;;9.10;3.97;;;14.70;99.10;;;;;;5005293;28;20034;-71
2022/10/08 08:39:04;;;;;;;10.82;3.53;;;14.80;99.00;;;;;;5008565;28;20026;-71
2022/10/08 08:41:32;;;;;;;9.48;3.72;;;14.90;98.90;;;;;;4993463;28;20060;-69
2022/10/08 08:44:01;;;;;;;8.55;3.38;;;15.00;98.80;;;;;;4993072;28;20109;-71
2022/10/08 08:46:32;;;;;;;5.93;3.47;;;15.00;98.60;;;;;;5006944;28;20034;-71
2022/10/08 08:49:01;;;;;;;10.13;3.20;;;15.10;98.40;;;;;;5007260;28;20124;-72
2022/10/08 08:51:26;;;;;;;9.80;3.60;;;15.20;98.40;;;;;;5005637;28;20045;-69
2022/10/08 08:53:52;;;;;;;11.15;3.40;;;15.30;98.20;;;;;;5000105;28;20025;-70
2022/10/08 08:56:22;;;;;;;9.55;3.20;;;15.30;98.10;;;;;;5003792;28;20120;-68
2022/10/08 08:58:57;;;;;;;11.88;4.15;;;15.40;98.00;;;;;;4996936;28;21170;-69
2022/10/08 09:01:32;;;;;;;10.35;3.50;;;15.50;97.90;;;;;;4995949;28;20033;-69
2022/10/08 09:04:11;;;;;;;8.77;3.60;;;15.60;97.80;;;;;;5001514;28;20035;-69
2022/10/08 09:06:38;;;;;;;10.95;4.07;;;15.70;97.70;;;;;;4991795;28;20022;-69
2022/10/08 09:09:32;;;;;;;5.13;2.67;;;15.80;97.60;;;;;;4994351;28;20062;-68
2022/10/08 09:11:58;;;;;;;10.10;3.67;;;15.80;97.50;;;;;;4996107;28;20101;-69
2022/10/08 09:14:35;;;;;;;9.40;3.53;;;15.90;97.60;;;;;;5008234;28;20038;-70
2022/10/08 09:17:16;;;;;;;12.70;3.30;;;16.00;97.30;;;;;;5008351;28;20034;-69
2022/10/08 09:19:42;;;;;;;6.82;2.95;;;16.10;97.30;;;;;;4998685;28;20030;-69
2022/10/08 09:22:19;;;;;;;9.65;3.00;;;16.10;97.10;;;;;;4997768;28;20045;-69
2022/10/08 09:24:48;;;;;;;9.15;3.90;;;16.20;97.10;;;;;;5000551;28;20022;-69
2022/10/08 09:27:14;;;;;;;6.75;3.13;;;16.20;96.90;;;;;;5007416;28;20033;-70
2022/10/08 09:29:40;;;;;;;6.93;3.08;;;16.30;96.90;;;;;;5004212;28;20117;-68
2022/10/08 09:32:13;;;;;;;7.45;3.40;;;16.30;96.80;;;;;;4987284;28;20105;-68
2022/10/08 09:34:38;;;;;;;11.43;3.70;;;16.40;96.80;;;;;;5001478;28;20037;-68
2022/10/08 09:37:12;;;;;;;9.98;4.30;;;16.60;96.70;;;;;;4999620;28;20374;-68
2022/10/08 09:39:38;;;;;;;7.75;3.63;;;16.70;96.70;;;;;;5001397;28;20026;-70
2022/10/08 09:42:06;;;;;;;10.18;3.80;;;16.90;96.60;;;;;;5004049;28;20373;-69
2022/10/08 09:44:43;;;;;;;6.68;3.58;;;17.00;96.40;;;;;;5011816;28;20373;-70
2022/10/08 09:47:14;;;;;;;9.13;3.53;;;17.20;96.20;;;;;;5004973;28;20034;-69
2022/10/08 09:49:41;;;;;;;8.88;3.40;;;17.30;95.80;;;;;;5001471;28;20070;-69
2022/10/08 09:52:19;;;;;;;7.78;3.80;;;17.40;95.80;;;;;;4987940;28;20628;-69
2022/10/08 09:54:56;;;;;;;6.00;3.28;;;17.50;95.60;;;;;;5004305;28;20030;-69
2022/10/08 09:57:22;;;;;;;7.68;3.10;;;17.50;95.50;;;;;;5004976;28;20054;-69
2022/10/08 09:59:55;;;;;;;5.22;3.40;;;17.70;95.40;;;;;;5007939;28;20030;-69
2022/10/08 10:02:32;;;;;;;10.10;3.95;;;17.70;95.00;;;;;;4999622;28;20022;-69
2022/10/08 10:05:00;;;;;;;5.45;3.10;;;17.80;94.90;;;;;;4992187;28;20084;-68
2022/10/08 10:07:37;;;;;;;10.02;3.97;;;17.80;94.90;;;;;;5004346;28;20481;-71
2022/10/08 10:10:14;;;;;;;8.85;3.33;;;17.80;94.80;;;;;;5003864;28;20034;-68
2022/10/08 10:12:43;;;;;;;7.65;3.20;;;17.90;94.80;;;;;;5005685;28;20048;-70
2022/10/08 10:15:19;;;;;;;10.13;4.13;;;18.00;94.80;;;;;;4996755;28;20104;-70
2022/10/08 10:17:46;;;;;;;9.85;3.65;;;18.10;94.60;;;;;;5003981;28;20394;-68
2022/10/08 10:20:29;;;;;;;5.43;3.13;;;18.20;94.60;;;;;;5008598;28;20108;-67
2022/10/08 10:23:09;;;;;;;6.82;3.42;;;18.30;94.60;;;;;;5012196;28;20037;-68
2022/10/08 10:25:57;;;;;;;4.93;3.00;;;18.40;94.40;;;;;;5000646;28;20109;-67
2022/10/08 10:28:44;;;;;;;6.22;2.97;;;18.40;94.20;;;;;;5003428;28;20042;-68
2022/10/08 10:31:16;;;;;;;6.50;3.50;;;18.50;94.20;;;;;;5012915;28;20069;-68
2022/10/08 10:34:16;;;;;;;7.57;3.25;;;18.50;94.00;;;;;;5013990;28;20489;-68
2022/10/08 10:36:53;;;;;;;7.60;3.63;;;18.50;93.80;;;;;;4998861;28;20474;-68
2022/10/08 10:39:37;;;;;;;9.57;3.90;;;18.40;93.70;;;;;;5014126;28;20045;-68
2022/10/08 10:42:23;;;;;;;6.88;3.00;;;18.40;93.60;;;;;;5007708;28;20385;-68
2022/10/08 10:44:56;;;;;;;9.23;3.00;;;18.40;93.50;;;;;;4999040;28;20041;-67
2022/10/08 10:47:26;;;;;;;8.38;3.30;;;18.40;93.50;;;;;;5003784;28;20353;-68
2022/10/08 10:49:54;;;;;;;5.07;3.17;;;18.30;93.30;;;;;;5010166;28;20100;-68
2022/10/08 10:52:34;;;;;;;7.63;3.22;;;18.30;93.30;;;;;;5005891;28;20080;-68
2022/10/08 10:55:22;;;;;;;7.78;3.30;;;18.30;93.20;;;;;;4993441;28;20046;-68
2022/10/08 10:58:03;;;;;;;9.18;4.13;;;18.30;93.30;;;;;;4998742;28;20106;-68
2022/10/08 11:00:31;;;;;;;8.35;3.97;;;18.30;93.20;;;;;;5003537;28;20030;-68
2022/10/08 11:03:29;;;;;;;6.72;3.60;;;18.30;93.10;;;;;;5009727;28;20387;-68
2022/10/08 11:06:17;;;;;;;6.07;3.28;;;18.30;93.00;;;;;;4996086;28;20101;-67
2022/10/08 11:09:09;;;;;;;8.32;3.55;;;18.10;93.00;;;;;;5003462;28;20462;-69
2022/10/08 11:11:41;;;;;;;7.03;3.50;;;18.10;93.00;;;;;;5008262;28;20053;-69
2022/10/08 11:14:26;;;;;;;7.47;3.67;;;18.00;92.90;;;;;;5002126;28;20470;-69
2022/10/08 11:17:02;;;;;;;;;;;18.00;92.90;;;;;;5006083;28;20021;-69
2022/10/08 11:19:46;;;;;;;7.30;3.65;;;18.00;93.10;;;;;;5004422;28;20495;-69
2022/10/08 11:22:28;;;;;;;6.80;3.05;;;17.80;93.00;;;;;;5008651;28;20026;-68
2022/10/08 11:25:04;;;;;;;7.10;3.47;;;17.80;93.10;;;;;;5003952;28;20473;-69
2022/10/08 11:27:58;;;;;;;9.43;3.40;;;17.70;93.10;;;;;;5004886;28;20035;-68
2022/10/08 11:30:47;;;;;;;6.97;3.10;;;17.80;93.20;;;;;;5000831;28;20916;-68
2022/10/08 11:33:14;;;;;;;7.68;3.20;;;17.60;93.30;;;;;;4991916;28;20048;-68
2022/10/08 11:36:01;;;;;;;11.68;3.90;;;17.60;93.30;;;;;;5008929;28;20085;-69
2022/10/08 11:38:50;;;;;;;6.75;3.45;;;17.50;93.60;;;;;;5019535;28;20030;-68
2022/10/08 11:41:31;;;;;;;8.02;3.75;;;17.40;93.90;;;;;;5013668;28;20041;-69
2022/10/08 11:44:01;;;;;;;11.98;4.38;;;17.30;94.30;;;;;;5028623;28;20026;-69
2022/10/08 11:46:30;;;;;;;10.18;4.18;;;17.30;94.70;;;;;;5020465;28;20032;-69
2022/10/08 11:49:10;;;;;;;9.63;4.28;;;17.20;95.10;;;;;;5019685;28;20038;-68
2022/10/08 11:51:44;;;;;;;7.15;4.47;;;17.10;95.50;;;;;;5014323;28;20049;-68
2022/10/08 11:54:33;;;;;;;8.77;5.00;;;17.00;95.80;;;;;;5014867;28;20442;-67
2022/10/08 11:57:20;;;;;;;12.52;5.20;;;16.90;96.10;;;;;;5006482;28;20069;-67
2022/10/08 11:59:58;;;;;;;8.32;4.50;;;16.90;96.40;;;;;;5024056;28;20093;-68
2022/10/08 12:02:32;;;;;;;9.27;5.40;;;16.80;96.70;;;;;;5019909;28;20041;-68
2022/10/08 12:05:15;;;;;;;9.65;5.22;;;16.80;97.00;;;;;;5010505;28;20026;-68
2022/10/08 12:07:52;;;;;;;8.77;4.68;;;16.80;97.20;;;;;;5010864;28;20070;-68
2022/10/08 12:10:17;;;;;;;8.93;4.80;;;16.90;97.40;;;;;;5005913;28;20036;-68
2022/10/08 12:12:51;;;;;;;8.93;5.35;;;16.90;97.50;;;;;;4999861;28;20117;-68
2022/10/08 12:15:23;;;;;;;10.10;5.65;;;16.90;97.60;;;;;;5002084;28;20116;-69
2022/10/08 12:17:54;;;;;;;7.45;5.13;;;17.00;97.60;;;;;;5004135;28;20081;-68
2022/10/08 12:20:31;;;;;;;10.18;5.80;;;17.10;97.60;;;;;;5006145;28;20029;-68
2022/10/08 12:23:33;;;;;;;12.80;5.78;;;17.10;97.60;;;;;;5003797;28;20033;-68
2022/10/08 12:25:58;;;;;;;7.88;5.45;;;17.10;97.70;;;;;;4999392;28;20037;-68
2022/10/08 12:28:28;;;;;;;9.65;6.13;;;17.20;97.70;;;;;;5009549;28;20469;-68
2022/10/08 12:31:00;;;;;;;10.48;5.20;;;17.20;97.80;;;;;;5004496;28;20034;-68
2022/10/08 12:33:29;;;;;;;8.88;4.97;;;17.20;97.90;;;;;;5008688;28;20098;-69
2022/10/08 12:36:00;;;;;;;11.50;4.70;;;17.30;97.80;;;;;;5013271;28;20053;-69
2022/10/08 12:38:36;;;;;;;11.00;5.75;;;17.30;97.70;;;;;;5010276;28;20026;-68
2022/10/08 12:41:28;;;;;;;12.20;5.50;;;17.30;97.50;;;;;;5004716;28;20025;-69
2022/10/08 12:44:40;;;;;;;9.95;5.38;;;17.40;97.40;;;;;;4994804;28;20026;-69
2022/10/08 12:47:13;;;;;;;9.75;5.18;;;17.30;97.30;;;;;;5005384;28;20120;-70
2022/10/08 12:49:51;;;;;;;8.70;4.80;;;17.40;97.30;;;;;;4976348;28;20116;-69
2022/10/08 12:52:18;;;;;;;8.05;4.65;;;17.30;97.30;;;;;;5007362;28;20030;-69
2022/10/08 12:54:50;;;;;;;9.48;4.90;;;17.30;97.40;;;;;;4999323;28;20053;-70
2022/10/08 12:57:37;;;;;;;9.05;4.88;;;17.30;97.40;;;;;;4995128;28;20050;-70
2022/10/08 13:00:24;;;;;;;8.60;5.25;;;17.30;97.30;;;;;;5013284;28;20053;-69
2022/10/08 13:03:06;;;;;;;9.48;4.82;;;17.30;97.30;;;;;;5005571;28;20117;-70
2022/10/08 13:05:37;;;;;;;8.18;4.57;;;17.30;97.20;;;;;;4985608;28;20109;-69
2022/10/08 13:08:29;;;;;;;8.35;4.45;;;17.40;97.10;;;;;;5003144;28;20030;-69